VCA weather

Can Tho International Airport
Can Tho, Lao Cai Province, Vietnam

Public forecast

Using degrees Celsius for public forecast. Weather courtesy of forecast.io.

METAR (pilot weather report)

Retrieved 2019/03/26 10:00 UTC (14 minutes ago):

VVCT 261000Z 09012KT 9999 FEW015 31/21 Q1010 NOSIG

TAF (pilot weather forecast)

Retrieved 2019/03/26 06:00 UTC (4 hours ago):

TAF VVCT 260500Z 2606/2706 10010KT 9999 SCT017 BECMG 2614/2615 VRB02KT BECMG 2700/2701 10010KT